createdAt,value
2017-08-16T00:00:02.437Z,0
2017-08-16T00:01:14.763Z,0
2017-08-16T00:02:27.367Z,0
2017-08-16T00:03:39.925Z,0
2017-08-16T00:04:52.509Z,0
2017-08-16T00:06:04.778Z,0
2017-08-16T00:07:16.455Z,0
2017-08-16T00:08:29.070Z,0
2017-08-16T00:09:41.600Z,0
2017-08-16T00:10:54.216Z,0
2017-08-16T00:12:06.483Z,0
2017-08-16T00:13:18.465Z,0
2017-08-16T00:14:30.751Z,0
2017-08-16T00:15:43.323Z,0
2017-08-16T00:16:55.894Z,0
2017-08-16T00:18:08.139Z,0
2017-08-16T00:19:20.467Z,0
2017-08-16T00:20:33.054Z,0
2017-08-16T00:21:45.333Z,0
2017-08-16T00:22:57.902Z,0
2017-08-16T00:24:10.144Z,0
2017-08-16T00:25:22.767Z,0
2017-08-16T00:26:34.998Z,0
2017-08-16T00:27:46.698Z,0
2017-08-16T00:28:58.951Z,0
2017-08-16T00:30:11.525Z,0
2017-08-16T00:31:23.746Z,0
2017-08-16T00:32:36.325Z,0
2017-08-16T00:33:48.894Z,0
2017-08-16T00:35:01.193Z,0
2017-08-16T00:36:13.793Z,0
2017-08-16T00:37:26.408Z,0
2017-08-16T00:38:38.686Z,0
2017-08-16T00:39:50.947Z,0
2017-08-16T00:41:03.264Z,0
2017-08-16T00:42:15.832Z,0
2017-08-16T00:43:27.854Z,0
2017-08-16T00:44:40.131Z,0
2017-08-16T00:45:52.347Z,0
2017-08-16T00:47:04.893Z,0
2017-08-16T00:48:17.267Z,0
2017-08-16T00:49:29.899Z,0
2017-08-16T00:50:42.484Z,0
2017-08-16T00:51:55.135Z,0
2017-08-16T00:53:07.756Z,0
2017-08-16T00:54:20.369Z,0
2017-08-16T00:55:32.967Z,0
2017-08-16T00:56:45.232Z,0
2017-08-16T00:57:57.827Z,0
2017-08-16T00:59:10.466Z,0
2017-08-16T01:00:23.030Z,0
2017-08-16T01:01:35.554Z,0
2017-08-16T01:02:47.837Z,0
2017-08-16T01:04:00.412Z,0
2017-08-16T01:05:13.021Z,0
2017-08-16T01:06:25.617Z,0
2017-08-16T01:07:37.871Z,0
2017-08-16T01:08:50.091Z,0
2017-08-16T01:10:02.691Z,0
2017-08-16T01:11:15.313Z,0
2017-08-16T01:12:27.606Z,0
2017-08-16T01:13:39.568Z,0
2017-08-16T01:14:52.177Z,0
2017-08-16T01:16:04.765Z,0
2017-08-16T01:17:16.451Z,0
2017-08-16T01:18:28.751Z,0
2017-08-16T01:19:41.055Z,0
2017-08-16T01:20:53.642Z,0
2017-08-16T01:22:05.983Z,0
2017-08-16T01:23:18.274Z,0
2017-08-16T01:24:30.556Z,0
2017-08-16T01:25:42.819Z,0
2017-08-16T01:26:55.456Z,0
2017-08-16T01:28:07.991Z,0
2017-08-16T01:29:20.298Z,0
2017-08-16T01:30:32.886Z,0
2017-08-16T01:31:45.465Z,0
2017-08-16T01:32:58.028Z,0
2017-08-16T01:34:10.674Z,0
2017-08-16T01:35:23.318Z,0
2017-08-16T01:36:35.558Z,0
2017-08-16T01:37:47.871Z,0
2017-08-16T01:39:00.427Z,0
2017-08-16T01:40:12.737Z,0
2017-08-16T01:41:25.294Z,0
2017-08-16T01:42:37.609Z,0
2017-08-16T01:43:50.296Z,0
2017-08-16T01:45:02.874Z,0
2017-08-16T01:46:14.892Z,0
2017-08-16T01:47:27.447Z,0
2017-08-16T01:48:40.020Z,0
2017-08-16T01:49:52.597Z,0
2017-08-16T01:51:05.153Z,0
2017-08-16T01:52:17.727Z,0
2017-08-16T01:53:29.997Z,0
2017-08-16T01:54:42.268Z,0
2017-08-16T01:55:54.882Z,0
2017-08-16T01:57:07.178Z,0
2017-08-16T01:58:19.187Z,0
2017-08-16T01:59:31.521Z,0
2017-08-16T02:00:44.068Z,0
2017-08-16T02:01:56.655Z,0
2017-08-16T02:03:09.514Z,0
2017-08-16T02:04:22.128Z,0
2017-08-16T02:05:34.751Z,0
2017-08-16T02:06:46.421Z,0
2017-08-16T02:07:58.999Z,0
2017-08-16T02:09:11.663Z,0
2017-08-16T02:10:23.886Z,0
2017-08-16T02:11:36.501Z,0
2017-08-16T02:12:49.068Z,0
2017-08-16T02:14:01.659Z,0
2017-08-16T02:15:14.291Z,0
2017-08-16T02:16:26.604Z,0
2017-08-16T02:17:38.857Z,0
2017-08-16T02:18:50.831Z,0
2017-08-16T02:20:02.783Z,0
2017-08-16T02:21:14.736Z,0
2017-08-16T02:22:27.329Z,0
2017-08-16T02:23:39.665Z,0
2017-08-16T02:24:51.946Z,0
2017-08-16T02:26:04.556Z,0
2017-08-16T02:27:17.114Z,0
2017-08-16T02:28:29.679Z,0
2017-08-16T02:29:41.980Z,0
2017-08-16T02:30:54.564Z,0
2017-08-16T02:32:07.185Z,0
2017-08-16T02:33:19.415Z,0
2017-08-16T02:34:32.095Z,0
2017-08-16T02:35:44.705Z,0
2017-08-16T02:36:57.335Z,0
2017-08-16T02:38:09.674Z,0
2017-08-16T02:39:21.346Z,0
2017-08-16T02:40:33.664Z,0
2017-08-16T02:41:46.287Z,0
2017-08-16T02:42:58.898Z,0
2017-08-16T02:44:11.248Z,0
2017-08-16T02:45:23.876Z,0
2017-08-16T02:46:36.186Z,0
2017-08-16T02:47:48.843Z,0
2017-08-16T02:49:01.504Z,0
2017-08-16T02:50:14.110Z,0
2017-08-16T02:51:26.430Z,0
2017-08-16T02:52:39.052Z,0
2017-08-16T02:53:51.354Z,0
2017-08-16T02:55:04.013Z,0
2017-08-16T02:56:16.620Z,0
2017-08-16T02:57:29.224Z,0
2017-08-16T02:58:41.549Z,0
2017-08-16T02:59:54.098Z,0
2017-08-16T03:01:06.469Z,0
2017-08-16T03:02:19.041Z,0
2017-08-16T03:03:31.677Z,0
2017-08-16T03:04:44.014Z,0
2017-08-16T03:05:56.649Z,0
2017-08-16T03:07:09.241Z,0
2017-08-16T03:08:21.801Z,0
2017-08-16T03:09:34.415Z,0
2017-08-16T03:10:47.004Z,0
2017-08-16T03:11:59.563Z,0
2017-08-16T03:13:11.807Z,0
2017-08-16T03:14:24.129Z,0
2017-08-16T03:15:36.497Z,0
2017-08-16T03:16:49.060Z,0
2017-08-16T03:18:01.355Z,0
2017-08-16T03:19:13.953Z,0
2017-08-16T03:20:25.898Z,0
2017-08-16T03:21:38.500Z,0
2017-08-16T03:22:51.056Z,0
2017-08-16T03:24:03.683Z,0
2017-08-16T03:25:15.982Z,0
2017-08-16T03:26:28.556Z,0
2017-08-16T03:27:40.933Z,0
2017-08-16T03:28:53.525Z,0
2017-08-16T03:30:05.521Z,0
2017-08-16T03:31:18.166Z,0
2017-08-16T03:32:30.473Z,0
2017-08-16T03:33:43.108Z,0
2017-08-16T03:34:55.378Z,0
2017-08-16T03:36:07.893Z,0
2017-08-16T03:37:20.139Z,0
2017-08-16T03:38:32.104Z,0
2017-08-16T03:39:44.712Z,0
2017-08-16T03:40:57.276Z,0
2017-08-16T03:42:09.555Z,0
2017-08-16T03:43:21.870Z,0
2017-08-16T03:44:34.116Z,5
2017-08-16T03:45:46.743Z,5
2017-08-16T03:46:59.347Z,5
2017-08-16T03:48:11.995Z,5
2017-08-16T03:49:24.574Z,5
2017-08-16T03:50:36.844Z,5
2017-08-16T03:51:49.119Z,5
2017-08-16T03:53:01.466Z,10
2017-08-16T03:54:14.049Z,10
2017-08-16T03:55:26.667Z,10
2017-08-16T03:56:38.977Z,10
2017-08-16T03:57:50.994Z,10
2017-08-16T03:59:03.591Z,15
2017-08-16T04:00:15.497Z,15
2017-08-16T04:01:28.138Z,15
2017-08-16T04:02:40.441Z,20
2017-08-16T04:03:52.757Z,20
2017-08-16T04:05:05.050Z,25
2017-08-16T04:06:17.648Z,25
2017-08-16T04:07:29.941Z,25
2017-08-16T04:08:42.214Z,25
2017-08-16T04:09:54.757Z,25
2017-08-16T04:11:07.337Z,25
2017-08-16T04:12:19.949Z,25
2017-08-16T04:13:32.560Z,25
2017-08-16T04:14:45.142Z,25
2017-08-16T04:15:57.485Z,30
2017-08-16T04:17:09.809Z,30
2017-08-16T04:18:22.404Z,30
2017-08-16T04:19:34.653Z,35
2017-08-16T04:20:46.944Z,35
2017-08-16T04:21:59.478Z,35
2017-08-16T04:23:12.076Z,40
2017-08-16T04:24:24.633Z,40
2017-08-16T04:25:36.901Z,45
2017-08-16T04:26:49.429Z,45
2017-08-16T04:28:01.652Z,50
2017-08-16T04:29:13.957Z,55
2017-08-16T04:30:26.544Z,55
2017-08-16T04:31:39.128Z,55
2017-08-16T04:32:51.727Z,55
2017-08-16T04:34:04.035Z,55
2017-08-16T04:35:15.998Z,50
2017-08-16T04:36:28.291Z,50
2017-08-16T04:37:40.314Z,50
2017-08-16T04:38:52.892Z,55
2017-08-16T04:40:05.163Z,55
2017-08-16T04:41:17.783Z,55
2017-08-16T04:42:30.357Z,60
2017-08-16T04:43:42.665Z,65
2017-08-16T04:44:54.989Z,75
2017-08-16T04:46:07.588Z,80
2017-08-16T04:47:19.890Z,85
2017-08-16T04:48:32.186Z,90
2017-08-16T04:49:44.832Z,95
2017-08-16T04:50:57.440Z,100
2017-08-16T04:52:09.422Z,105
2017-08-16T04:53:21.718Z,105
2017-08-16T04:54:33.979Z,110
2017-08-16T04:55:46.501Z,110
2017-08-16T04:56:59.088Z,115
2017-08-16T04:58:11.622Z,115
2017-08-16T04:59:24.242Z,115
2017-08-16T05:00:36.574Z,115
2017-08-16T05:01:48.878Z,120
2017-08-16T05:03:01.142Z,120
2017-08-16T05:04:13.670Z,125
2017-08-16T05:05:25.957Z,125
2017-08-16T05:06:37.637Z,130
2017-08-16T05:07:49.601Z,130
2017-08-16T05:09:02.174Z,130
2017-08-16T05:10:14.454Z,130
2017-08-16T05:11:27.021Z,125
2017-08-16T05:12:39.318Z,125
2017-08-16T05:13:52.212Z,120
2017-08-16T05:15:04.801Z,115
2017-08-16T05:16:17.098Z,110
2017-08-16T05:17:29.694Z,105
2017-08-16T05:18:41.958Z,105
2017-08-16T05:19:54.252Z,100
2017-08-16T05:21:06.188Z,100
2017-08-16T05:22:18.768Z,100
2017-08-16T05:23:31.330Z,105
2017-08-16T05:24:43.844Z,105
2017-08-16T05:25:56.447Z,115
2017-08-16T05:27:08.992Z,120
2017-08-16T05:28:21.248Z,125
2017-08-16T05:29:33.897Z,135
2017-08-16T05:30:46.492Z,145
2017-08-16T05:31:59.119Z,155
2017-08-16T05:33:11.397Z,165
2017-08-16T05:34:23.369Z,170
2017-08-16T05:35:35.925Z,175
2017-08-16T05:36:48.572Z,180
2017-08-16T05:38:01.159Z,185
2017-08-16T05:39:13.803Z,190
2017-08-16T05:40:26.354Z,190
2017-08-16T05:41:38.970Z,190
2017-08-16T05:42:51.498Z,190
2017-08-16T05:44:04.091Z,190
2017-08-16T05:45:16.611Z,190
2017-08-16T05:46:29.140Z,185
2017-08-16T05:47:41.750Z,180
2017-08-16T05:48:54.372Z,175
2017-08-16T05:50:06.331Z,170
2017-08-16T05:51:18.343Z,165
2017-08-16T05:52:30.960Z,160
2017-08-16T05:53:43.554Z,155
2017-08-16T05:54:56.197Z,150
2017-08-16T05:56:08.476Z,145
2017-08-16T05:57:21.097Z,145
2017-08-16T05:58:33.413Z,135
2017-08-16T05:59:45.064Z,130
2017-08-16T06:00:57.081Z,125
2017-08-16T06:02:09.383Z,125
2017-08-16T06:03:21.700Z,125
2017-08-16T06:04:33.694Z,130
2017-08-16T06:05:45.964Z,130
2017-08-16T06:06:58.540Z,135
2017-08-16T06:08:11.105Z,130
2017-08-16T06:09:23.356Z,125
2017-08-16T06:10:35.699Z,125
2017-08-16T06:11:47.966Z,120
2017-08-16T06:13:00.531Z,120
2017-08-16T06:14:13.084Z,125
2017-08-16T06:15:25.656Z,125
2017-08-16T06:16:37.911Z,125
2017-08-16T06:17:50.196Z,125
2017-08-16T06:19:02.961Z,130
2017-08-16T06:20:15.588Z,130
2017-08-16T06:21:28.187Z,130
2017-08-16T06:22:40.107Z,130
2017-08-16T06:23:52.674Z,125
2017-08-16T06:25:04.650Z,125
2017-08-16T06:26:16.666Z,125
2017-08-16T06:27:28.938Z,125
2017-08-16T06:28:41.584Z,120
2017-08-16T06:29:54.269Z,120
2017-08-16T06:31:06.904Z,115
2017-08-16T06:32:19.196Z,110
2017-08-16T06:33:31.794Z,110
2017-08-16T06:34:44.022Z,110
2017-08-16T06:35:56.309Z,115
2017-08-16T06:37:08.318Z,120
2017-08-16T06:38:20.878Z,125
2017-08-16T06:39:33.450Z,130
2017-08-16T06:40:46.255Z,130
2017-08-16T06:41:58.568Z,130
2017-08-16T06:43:11.164Z,125
2017-08-16T06:44:23.744Z,125
2017-08-16T06:45:36.347Z,125
2017-08-16T06:46:48.957Z,130
2017-08-16T06:48:01.230Z,135
2017-08-16T06:49:13.844Z,140
2017-08-16T06:50:26.116Z,145
2017-08-16T06:51:38.788Z,145
2017-08-16T06:52:51.083Z,145
2017-08-16T06:54:03.381Z,145
2017-08-16T06:55:15.670Z,140
2017-08-16T06:56:28.221Z,140
2017-08-16T06:57:40.515Z,135
2017-08-16T06:58:53.134Z,130
2017-08-16T07:00:05.451Z,130
2017-08-16T07:01:17.731Z,125
2017-08-16T07:02:30.312Z,125
2017-08-16T07:03:42.249Z,125
2017-08-16T07:04:54.812Z,120
2017-08-16T07:06:07.424Z,120
2017-08-16T07:07:19.413Z,120
2017-08-16T07:08:31.688Z,120
2017-08-16T07:09:44.313Z,120
2017-08-16T07:10:56.896Z,120
2017-08-16T07:12:09.468Z,120
2017-08-16T07:13:21.139Z,125
2017-08-16T07:14:33.080Z,125
2017-08-16T07:15:45.392Z,125
2017-08-16T07:16:57.645Z,120
2017-08-16T07:18:09.846Z,125
2017-08-16T07:19:22.071Z,130
2017-08-16T07:20:34.670Z,130
2017-08-16T07:21:47.306Z,130
2017-08-16T07:22:59.257Z,130
2017-08-16T07:24:12.102Z,130
2017-08-16T07:25:24.382Z,125
2017-08-16T07:26:36.664Z,125
2017-08-16T07:27:49.263Z,125
2017-08-16T07:29:01.555Z,125
2017-08-16T07:30:14.179Z,120
2017-08-16T07:31:26.815Z,115
2017-08-16T07:32:39.118Z,115
2017-08-16T07:33:51.742Z,110
2017-08-16T07:35:04.052Z,110
2017-08-16T07:36:16.647Z,100
2017-08-16T07:37:28.999Z,90
2017-08-16T07:38:40.623Z,80
2017-08-16T07:39:53.261Z,70
2017-08-16T07:41:05.842Z,60
2017-08-16T07:42:18.112Z,50
2017-08-16T07:43:30.706Z,40
2017-08-16T07:44:43.305Z,35
2017-08-16T07:45:55.315Z,30
2017-08-16T07:47:07.311Z,25
2017-08-16T07:48:19.581Z,20
2017-08-16T07:49:31.594Z,20
2017-08-16T07:50:43.917Z,20
2017-08-16T07:51:56.535Z,25
2017-08-16T07:53:09.196Z,30
2017-08-16T07:54:21.128Z,35
2017-08-16T07:55:33.121Z,50
2017-08-16T07:56:45.413Z,60
2017-08-16T07:57:58.000Z,55
2017-08-16T07:59:10.602Z,50
2017-08-16T08:00:23.193Z,60
2017-08-16T08:01:35.738Z,65
2017-08-16T08:02:48.334Z,35
2017-08-16T08:04:00.942Z,25
2017-08-16T08:05:13.557Z,35
2017-08-16T08:06:25.822Z,50
2017-08-16T08:07:38.139Z,55
2017-08-16T08:08:50.519Z,55
2017-08-16T08:10:03.123Z,50
2017-08-16T08:11:15.086Z,50
2017-08-16T08:12:27.689Z,60
2017-08-16T08:13:40.321Z,70
2017-08-16T08:14:52.261Z,60
2017-08-16T08:16:04.820Z,60
2017-08-16T08:17:17.077Z,60
2017-08-16T08:18:29.022Z,65
2017-08-16T08:19:41.616Z,65
2017-08-16T08:20:53.859Z,75
2017-08-16T08:22:05.827Z,80
2017-08-16T08:23:18.376Z,90
2017-08-16T08:24:30.648Z,100
2017-08-16T08:25:42.724Z,110
2017-08-16T08:26:54.995Z,110
2017-08-16T08:28:07.258Z,110
2017-08-16T08:29:19.802Z,125
2017-08-16T08:30:32.073Z,135
2017-08-16T08:31:44.696Z,135
2017-08-16T08:32:57.239Z,130
2017-08-16T08:34:09.170Z,130
2017-08-16T08:35:20.831Z,130
2017-08-16T08:36:32.813Z,135
2017-08-16T08:37:45.398Z,140
2017-08-16T08:38:57.386Z,145
2017-08-16T08:40:09.940Z,145
2017-08-16T08:41:22.189Z,145
2017-08-16T08:42:34.188Z,145
2017-08-16T08:43:46.806Z,145
2017-08-16T08:44:59.430Z,150
2017-08-16T08:46:11.719Z,150
2017-08-16T08:47:24.276Z,150
2017-08-16T08:48:35.960Z,145
2017-08-16T08:49:48.533Z,140
2017-08-16T08:51:01.128Z,135
2017-08-16T08:52:13.433Z,135
2017-08-16T08:53:25.123Z,130
2017-08-16T08:54:37.138Z,130
2017-08-16T08:55:49.386Z,130
2017-08-16T08:57:01.981Z,130
2017-08-16T08:58:13.932Z,125
2017-08-16T08:59:25.928Z,125
2017-08-16T09:00:38.219Z,125
2017-08-16T09:01:50.428Z,115
2017-08-16T09:03:02.413Z,120
2017-08-16T09:04:14.701Z,130
2017-08-16T09:05:27.332Z,130
2017-08-16T09:06:39.574Z,130
2017-08-16T09:07:52.176Z,125
2017-08-16T09:09:04.719Z,130
2017-08-16T09:10:17.293Z,130
2017-08-16T09:11:29.933Z,145
2017-08-16T09:12:42.186Z,150
2017-08-16T09:13:54.493Z,145
2017-08-16T09:15:06.770Z,155
2017-08-16T09:16:19.067Z,155
2017-08-16T09:17:31.336Z,150
2017-08-16T09:18:42.687Z,150
2017-08-16T09:19:54.943Z,145
2017-08-16T09:21:07.258Z,140
2017-08-16T09:22:19.850Z,140
2017-08-16T09:23:32.449Z,135
2017-08-16T09:24:44.379Z,130
2017-08-16T09:25:56.401Z,135
2017-08-16T09:27:09.012Z,140
2017-08-16T09:28:21.301Z,145
2017-08-16T09:29:33.921Z,145
2017-08-16T09:30:45.956Z,155
2017-08-16T09:31:57.963Z,160
2017-08-16T09:33:10.515Z,175
2017-08-16T09:34:22.517Z,190
2017-08-16T09:35:34.823Z,210
2017-08-16T09:36:46.782Z,225
2017-08-16T09:37:59.295Z,245
2017-08-16T09:39:10.965Z,265
2017-08-16T09:40:23.560Z,290
2017-08-16T09:41:35.823Z,305
2017-08-16T09:42:48.170Z,310
2017-08-16T09:44:00.790Z,345
2017-08-16T09:45:12.810Z,380
2017-08-16T09:46:25.119Z,410
2017-08-16T09:47:37.471Z,440
2017-08-16T09:48:50.093Z,465
2017-08-16T09:50:02.377Z,490
2017-08-16T09:51:14.978Z,500
2017-08-16T09:52:27.302Z,500
2017-08-16T09:53:39.566Z,495
2017-08-16T09:54:52.167Z,495
2017-08-16T09:56:04.741Z,490
2017-08-16T09:57:17.338Z,490
2017-08-16T09:58:29.575Z,465
2017-08-16T09:59:41.552Z,425
2017-08-16T10:00:52.893Z,385
2017-08-16T10:02:05.088Z,360
2017-08-16T10:03:17.357Z,365
2017-08-16T10:04:29.610Z,375
2017-08-16T10:05:41.900Z,390
2017-08-16T10:06:54.170Z,395
2017-08-16T10:08:06.446Z,370
2017-08-16T10:09:18.965Z,310
2017-08-16T10:10:31.233Z,265
2017-08-16T10:11:43.815Z,300
2017-08-16T10:12:56.382Z,325
2017-08-16T10:14:08.394Z,280
2017-08-16T10:15:20.654Z,210
2017-08-16T10:16:33.305Z,220
2017-08-16T10:17:45.902Z,325
2017-08-16T10:18:58.157Z,365
2017-08-16T10:20:10.753Z,330
2017-08-16T10:21:23.071Z,260
2017-08-16T10:22:35.393Z,225
2017-08-16T10:23:47.341Z,255
2017-08-16T10:24:59.645Z,355
2017-08-16T10:26:12.356Z,350
2017-08-16T10:27:24.955Z,285
2017-08-16T10:28:37.522Z,215
2017-08-16T10:29:49.810Z,185
2017-08-16T10:31:02.093Z,180
2017-08-16T10:32:14.746Z,195
2017-08-16T10:33:26.747Z,215
2017-08-16T10:34:38.158Z,240
2017-08-16T10:35:50.798Z,280
2017-08-16T10:37:02.794Z,375
2017-08-16T10:38:15.342Z,500
2017-08-16T10:39:27.863Z,560
2017-08-16T10:40:40.472Z,520
2017-08-16T10:41:52.783Z,430
2017-08-16T10:43:05.384Z,370
2017-08-16T10:44:18.000Z,420
2017-08-16T10:45:30.249Z,480
2017-08-16T10:46:42.942Z,480
2017-08-16T10:47:55.549Z,415
2017-08-16T10:49:07.514Z,345
2017-08-16T10:50:20.148Z,340
2017-08-16T10:51:32.674Z,380
2017-08-16T10:52:45.268Z,430
2017-08-16T10:53:57.866Z,445
2017-08-16T10:55:10.092Z,470
2017-08-16T10:56:22.777Z,485
2017-08-16T10:57:35.366Z,480
2017-08-16T10:58:48.002Z,450
2017-08-16T11:00:00.318Z,655
2017-08-16T11:01:12.610Z,735
2017-08-16T11:02:24.938Z,795
2017-08-16T11:03:37.195Z,845
2017-08-16T11:04:49.813Z,970
2017-08-16T11:06:02.383Z,1165
2017-08-16T11:07:14.366Z,1290
2017-08-16T11:08:26.637Z,1390
2017-08-16T11:09:38.614Z,1820
2017-08-16T11:10:50.954Z,3825
2017-08-16T11:12:02.881Z,1565
2017-08-16T11:13:15.177Z,2865
2017-08-16T11:14:27.772Z,2770
2017-08-16T11:15:40.312Z,2615
2017-08-16T11:16:52.915Z,1750
2017-08-16T11:18:05.557Z,865
2017-08-16T11:19:17.851Z,995
2017-08-16T11:20:30.439Z,1130
2017-08-16T11:21:42.724Z,1550
2017-08-16T11:22:55.041Z,3245
2017-08-16T11:24:07.309Z,945
2017-08-16T11:25:19.906Z,1140
2017-08-16T11:26:32.204Z,1345
2017-08-16T11:27:44.231Z,2270
2017-08-16T11:28:56.847Z,4775
2017-08-16T11:30:09.147Z,2930
2017-08-16T11:31:21.747Z,3025
2017-08-16T11:32:34.366Z,4520
2017-08-16T11:33:46.693Z,1165
2017-08-16T11:34:59.275Z,1125
2017-08-16T11:36:11.566Z,1640
2017-08-16T11:37:23.864Z,1130
2017-08-16T11:38:36.233Z,1255
2017-08-16T11:39:48.861Z,4545
2017-08-16T11:41:00.255Z,2045
2017-08-16T11:42:12.862Z,4055
2017-08-16T11:43:25.448Z,4190
2017-08-16T11:44:37.368Z,4330
2017-08-16T11:45:49.953Z,4135
2017-08-16T11:47:02.582Z,4260
2017-08-16T11:48:15.178Z,2390
2017-08-16T11:49:27.792Z,2705
2017-08-16T11:50:40.054Z,4945
2017-08-16T11:51:52.046Z,4590
2017-08-16T11:53:04.364Z,4485
2017-08-16T11:54:16.363Z,4745
2017-08-16T11:55:29.045Z,4735
2017-08-16T11:56:40.766Z,4490
2017-08-16T11:57:53.380Z,3365
2017-08-16T11:59:05.992Z,2050
2017-08-16T12:00:18.582Z,1425
2017-08-16T12:01:30.257Z,1665
2017-08-16T12:02:42.565Z,1525
2017-08-16T12:03:54.867Z,2420
2017-08-16T12:05:07.148Z,1365
2017-08-16T12:06:19.173Z,2395
2017-08-16T12:07:31.797Z,2200
2017-08-16T12:08:43.463Z,4470
2017-08-16T12:09:56.080Z,2675
2017-08-16T12:11:08.053Z,1130
2017-08-16T12:12:20.072Z,1190
2017-08-16T12:13:32.377Z,845
2017-08-16T12:14:44.963Z,755
2017-08-16T12:15:57.571Z,620
2017-08-16T12:17:10.157Z,575
2017-08-16T12:18:22.728Z,605
2017-08-16T12:19:35.376Z,575
2017-08-16T12:20:47.620Z,550
2017-08-16T12:21:59.891Z,915
2017-08-16T12:23:12.272Z,3285
2017-08-16T12:24:23.954Z,855
2017-08-16T12:25:35.978Z,735
2017-08-16T12:26:48.501Z,785
2017-08-16T12:28:00.418Z,1005
2017-08-16T12:29:12.688Z,930
2017-08-16T12:30:24.365Z,1230
2017-08-16T12:31:36.686Z,1160
2017-08-16T12:32:48.644Z,975
2017-08-16T12:34:00.927Z,2240
2017-08-16T12:35:13.249Z,2935
2017-08-16T12:36:25.575Z,1700
2017-08-16T12:37:37.535Z,4270
2017-08-16T12:38:49.832Z,3110
2017-08-16T12:40:02.146Z,3765
2017-08-16T12:41:14.731Z,3645
2017-08-16T12:42:27.030Z,3035
2017-08-16T12:43:39.643Z,3705
2017-08-16T12:44:51.924Z,4150
2017-08-16T12:46:04.557Z,3915
2017-08-16T12:47:17.189Z,3915
2017-08-16T12:48:28.905Z,3645
2017-08-16T12:49:41.470Z,3770
2017-08-16T12:50:53.788Z,3965
2017-08-16T12:52:06.088Z,2770
2017-08-16T12:53:17.732Z,3565
2017-08-16T12:54:29.429Z,2845
2017-08-16T12:55:41.701Z,3830
2017-08-16T12:56:54.245Z,3850
2017-08-16T12:58:06.843Z,3765
2017-08-16T12:59:19.170Z,3440
2017-08-16T13:00:31.790Z,3190
2017-08-16T13:01:44.134Z,3280
2017-08-16T13:02:56.085Z,3320
2017-08-16T13:04:07.808Z,3495
2017-08-16T13:05:19.533Z,3145
2017-08-16T13:06:31.838Z,3785
2017-08-16T13:07:44.175Z,2370
2017-08-16T13:08:56.171Z,1160
2017-08-16T13:10:08.499Z,2465
2017-08-16T13:11:19.876Z,2295
2017-08-16T13:12:31.849Z,3275
2017-08-16T13:13:44.501Z,3365
2017-08-16T13:14:57.186Z,3420
2017-08-16T13:16:09.791Z,3365
2017-08-16T13:17:22.101Z,2725
2017-08-16T13:18:34.446Z,3115
2017-08-16T13:19:46.692Z,1245
2017-08-16T13:20:59.271Z,3720
2017-08-16T13:22:11.846Z,3350
2017-08-16T13:23:23.873Z,2775
2017-08-16T13:24:36.156Z,2165
2017-08-16T13:25:48.801Z,975
2017-08-16T13:27:01.346Z,920
2017-08-16T13:28:13.713Z,890
2017-08-16T13:29:25.717Z,940
2017-08-16T13:30:37.979Z,1155
2017-08-16T13:31:50.230Z,1255
2017-08-16T13:33:02.278Z,1130
2017-08-16T13:34:14.548Z,1195
2017-08-16T13:35:26.551Z,1200
2017-08-16T13:36:38.902Z,1225
2017-08-16T13:37:51.191Z,1025
2017-08-16T13:39:02.881Z,1890
2017-08-16T13:40:15.142Z,3300
2017-08-16T13:41:27.452Z,3155
2017-08-16T13:42:40.041Z,2730
2017-08-16T13:43:52.610Z,2890
2017-08-16T13:45:04.585Z,1055
2017-08-16T13:46:16.929Z,970
2017-08-16T13:47:29.574Z,1635
2017-08-16T13:48:42.174Z,730
2017-08-16T13:49:54.819Z,505
2017-08-16T13:51:07.161Z,660
2017-08-16T13:52:19.760Z,2225
2017-08-16T13:53:32.010Z,1555
2017-08-16T13:54:44.686Z,605
2017-08-16T13:55:56.702Z,545
2017-08-16T13:57:08.994Z,555
2017-08-16T13:58:20.943Z,620
2017-08-16T13:59:33.590Z,705
2017-08-16T14:00:45.622Z,860
2017-08-16T14:01:57.636Z,1345
2017-08-16T14:03:10.204Z,865
2017-08-16T14:04:22.521Z,860
2017-08-16T14:05:35.106Z,865
2017-08-16T14:06:47.358Z,875
2017-08-16T14:07:59.934Z,885
2017-08-16T14:09:12.297Z,850
2017-08-16T14:10:24.261Z,825
2017-08-16T14:11:35.924Z,815
2017-08-16T14:12:47.667Z,595
2017-08-16T14:14:00.297Z,610
2017-08-16T14:15:12.281Z,625
2017-08-16T14:16:24.949Z,520
2017-08-16T14:17:36.954Z,580
2017-08-16T14:18:49.591Z,480
2017-08-16T14:20:01.971Z,440
2017-08-16T14:21:14.509Z,445
2017-08-16T14:22:26.799Z,435
2017-08-16T14:23:39.059Z,435
2017-08-16T14:24:51.611Z,440
2017-08-16T14:26:03.870Z,405
2017-08-16T14:27:15.591Z,390
2017-08-16T14:28:27.852Z,450
2017-08-16T14:29:40.157Z,535
2017-08-16T14:30:52.763Z,615
2017-08-16T14:32:05.396Z,635
2017-08-16T14:33:17.435Z,630
2017-08-16T14:34:29.739Z,590
2017-08-16T14:35:42.078Z,585
2017-08-16T14:36:54.332Z,560
2017-08-16T14:38:06.626Z,560
2017-08-16T14:39:18.934Z,545
2017-08-16T14:40:30.935Z,530
2017-08-16T14:41:42.994Z,505
2017-08-16T14:42:55.603Z,485
2017-08-16T14:44:08.238Z,475
2017-08-16T14:45:20.558Z,475
2017-08-16T14:46:32.865Z,465
2017-08-16T14:47:45.219Z,465
2017-08-16T14:48:57.809Z,460
2017-08-16T14:50:10.130Z,455
2017-08-16T14:51:21.838Z,455
2017-08-16T14:52:34.386Z,455
2017-08-16T14:53:47.028Z,445
2017-08-16T14:54:59.621Z,440
2017-08-16T14:56:11.869Z,440
2017-08-16T14:57:23.849Z,440
2017-08-16T14:58:36.115Z,440
2017-08-16T14:59:48.105Z,435
2017-08-16T15:01:00.675Z,425
2017-08-16T15:02:12.999Z,415
2017-08-16T15:03:24.992Z,405
2017-08-16T15:04:36.670Z,395
2017-08-16T15:05:49.362Z,390
2017-08-16T15:07:01.655Z,385
2017-08-16T15:08:13.932Z,380
2017-08-16T15:09:26.574Z,380
2017-08-16T15:10:38.559Z,385
2017-08-16T15:11:50.614Z,385
2017-08-16T15:13:03.160Z,375
2017-08-16T15:14:15.739Z,370
2017-08-16T15:15:27.700Z,360
2017-08-16T15:16:40.078Z,355
2017-08-16T15:17:52.704Z,350
2017-08-16T15:19:05.048Z,345
2017-08-16T15:20:17.686Z,350
2017-08-16T15:21:29.889Z,350
2017-08-16T15:22:41.839Z,350
2017-08-16T15:23:54.450Z,350
2017-08-16T15:25:07.080Z,345
2017-08-16T15:26:19.413Z,335
2017-08-16T15:27:31.667Z,330
2017-08-16T15:28:43.976Z,330
2017-08-16T15:29:56.244Z,330
2017-08-16T15:31:08.598Z,325
2017-08-16T15:32:20.955Z,320
2017-08-16T15:33:33.215Z,315
2017-08-16T15:34:45.538Z,310
2017-08-16T15:35:57.860Z,305
2017-08-16T15:37:10.411Z,305
2017-08-16T15:38:22.727Z,305
2017-08-16T15:39:34.744Z,300
2017-08-16T15:40:46.968Z,300
2017-08-16T15:41:59.213Z,300
2017-08-16T15:43:11.845Z,300
2017-08-16T15:44:24.181Z,305
2017-08-16T15:45:36.502Z,310
2017-08-16T15:46:49.078Z,315
2017-08-16T15:48:01.721Z,320
2017-08-16T15:49:14.295Z,315
2017-08-16T15:50:26.606Z,310
2017-08-16T15:51:38.879Z,300
2017-08-16T15:52:51.505Z,300
2017-08-16T15:54:03.813Z,290
2017-08-16T15:55:16.108Z,290
2017-08-16T15:56:28.754Z,295
2017-08-16T15:57:41.376Z,295
2017-08-16T15:58:53.379Z,290
2017-08-16T16:00:05.979Z,290
2017-08-16T16:01:18.602Z,290
2017-08-16T16:02:31.197Z,285
2017-08-16T16:03:43.812Z,280
2017-08-16T16:04:55.820Z,280
2017-08-16T16:06:08.069Z,280
2017-08-16T16:07:19.752Z,280
2017-08-16T16:08:32.446Z,280
2017-08-16T16:09:45.042Z,280
2017-08-16T16:10:57.666Z,285
2017-08-16T16:12:09.652Z,285
2017-08-16T16:13:22.047Z,295
2017-08-16T16:14:34.314Z,300
2017-08-16T16:15:46.571Z,295
2017-08-16T16:16:59.110Z,290
2017-08-16T16:18:11.719Z,280
2017-08-16T16:19:24.069Z,275
2017-08-16T16:20:36.366Z,265
2017-08-16T16:21:48.953Z,265
2017-08-16T16:23:01.175Z,265
2017-08-16T16:24:13.433Z,255
2017-08-16T16:25:25.757Z,240
2017-08-16T16:26:38.302Z,240
2017-08-16T16:27:50.631Z,230
2017-08-16T16:29:02.944Z,225
2017-08-16T16:30:14.908Z,215
2017-08-16T16:31:27.543Z,210
2017-08-16T16:32:39.814Z,210
2017-08-16T16:33:52.435Z,210
2017-08-16T16:35:04.737Z,210
2017-08-16T16:36:17.394Z,215
2017-08-16T16:37:29.741Z,220
2017-08-16T16:38:41.745Z,230
2017-08-16T16:39:54.389Z,235
2017-08-16T16:41:06.360Z,240
2017-08-16T16:42:18.318Z,255
2017-08-16T16:43:30.921Z,270
2017-08-16T16:44:43.200Z,270
2017-08-16T16:45:55.774Z,265
2017-08-16T16:47:08.318Z,255
2017-08-16T16:48:20.329Z,250
2017-08-16T16:49:32.326Z,235
2017-08-16T16:50:44.315Z,225